Weather History for PASX - July, 2013

Change the Weather History Date:

Tuesday, July 2, 2013

  Actual Average Record
Temperature  
Mean Temperature 52 °F -  
Max Temperature 57 °F 60 °F 79 °F (1989)
Min Temperature 46 °F 46 °F 36 °F (1960)
Degree Days  
Heating Degree Days 14    
Growing Degree Days 2 (Base 50)    
Moisture  
Dew Point 43 °F    
Average Humidity 74    
Maximum Humidity 87    
Minimum Humidity 62    
Precipitation  
Precipitation 0.00 in - - ()
Sea Level Pressure  
Sea Level Pressure 29.72 in    
Wind  
Wind Speed 5 mph (SW)    
Max Wind Speed 14 mph    
Max Gust Speed 20 mph    
Visibility 10 miles    
Events      
Averages and records for this station are not official NWS values.
T = Trace of Precipitation, MM = Missing Value Source: NWS Daily Summary

Daily Weather History Graph

Daily Weather History Graph

Search for Another Location

Airport or City:

Trip Planner

Search our weather history database for the weather conditions in past years. The results will help you decide how hot, cold, wet, or windy it might be!

Date:

Astronomy

Jul. 02, 2013 Rise Set
Actual Time 4:42 AM AKDT 11:33 PM AKDT
Civil Twilight 2:54 AM AKDT 1:19 AM AKDT
Nautical Twilight Sun does not set Sun does not set
Astronomical Twilight Sun does not set Sun does not set
Moon 1:48 AM AKDT (7/2) 6:10 PM AKDT (7/2)
Length of Visible Light 22h 25m
Length of Day
18h 50m
Waning Crescent, 25% of the Moon is Illuminated
Jul 2
Waning Crescent
Jul 7
New
Jul 15
First Quarter
Jul 22
Full
Jul 29
Last Quarter

Hourly Weather History & Observations

Time (AKDT) Temp. Windchill Dew Point Humidity Pressure Visibility Wind Dir Wind Speed Gust Speed Precip Events Conditions
12:16 AM 51.8 °F - 39.2 °F 62% 29.56 in 10.0 mi ESE 3.5 mph - N/A   Unknown
12:36 AM 51.8 °F - 39.2 °F 62% 29.57 in 10.0 mi Calm Calm - N/A   Unknown
12:56 AM 50.0 °F - 39.2 °F 66% 29.57 in 10.0 mi Calm Calm - N/A   Unknown
1:16 AM 46.4 °F 44.3 °F 39.2 °F 76% 29.57 in 10.0 mi ESE 4.6 mph - N/A   Unknown
1:36 AM 46.4 °F - 39.2 °F 76% 29.57 in 10.0 mi Calm Calm - N/A   Unknown
1:56 AM 48.2 °F - 41.0 °F 76% 29.58 in 10.0 mi Calm Calm - N/A   Unknown
2:16 AM 46.4 °F - 39.2 °F 76% 29.58 in 10.0 mi Calm Calm - N/A   Unknown
2:36 AM 48.2 °F - 39.2 °F 71% 29.58 in 10.0 mi SE 3.5 mph - N/A   Unknown
2:56 AM 48.2 °F - 39.2 °F 71% 29.59 in 10.0 mi Calm Calm - N/A   Unknown
3:16 AM 48.2 °F - 39.2 °F 71% 29.59 in 10.0 mi South 4.6 mph - N/A   Unknown
3:36 AM 48.2 °F - 41.0 °F 76% 29.60 in 10.0 mi SSE 4.6 mph - N/A   Unknown
3:56 AM 48.2 °F - 42.8 °F 82% 29.60 in 10.0 mi SE 4.6 mph - N/A   Unknown
4:16 AM 48.2 °F - 42.8 °F 82% 29.60 in 10.0 mi Calm Calm - N/A   Unknown
4:36 AM 48.2 °F - 42.8 °F 82% 29.61 in 10.0 mi Calm Calm - N/A   Unknown
4:56 AM 48.2 °F - 42.8 °F 82% 29.61 in 10.0 mi ESE 3.5 mph - N/A   Unknown
5:16 AM 50.0 °F - 42.8 °F 76% 29.62 in 10.0 mi SSW 3.5 mph - N/A   Unknown
5:36 AM 48.2 °F - 42.8 °F 82% 29.62 in 10.0 mi Calm Calm - N/A   Unknown
5:56 AM 48.2 °F - 42.8 °F 82% 29.63 in 10.0 mi SSW 4.6 mph - N/A   Unknown
6:16 AM 48.2 °F - 42.8 °F 82% 29.63 in 10.0 mi SSW 3.5 mph - N/A   Unknown
6:36 AM 48.2 °F - 44.6 °F 87% 29.64 in 10.0 mi SSW 4.6 mph - N/A   Unknown
6:56 AM 48.2 °F - 44.6 °F 87% 29.64 in 10.0 mi SW 8.1 mph - N/A   Unknown
7:16 AM 48.2 °F - 44.6 °F 87% 29.65 in 10.0 mi SW 6.9 mph - N/A   Unknown
7:36 AM 48.2 °F - 44.6 °F 87% 29.66 in 10.0 mi SW 4.6 mph - N/A   Unknown
7:56 AM 48.2 °F - 44.6 °F 87% 29.67 in 10.0 mi SW 3.5 mph - N/A   Unknown
8:16 AM 48.2 °F - 44.6 °F 87% 29.68 in 10.0 mi SSW 5.8 mph - N/A   Unknown
8:36 AM 50.0 °F - 44.6 °F 82% 29.68 in 10.0 mi SSW 3.5 mph - N/A   Unknown
8:56 AM 50.0 °F - 44.6 °F 82% 29.69 in 10.0 mi West 8.1 mph - N/A   Unknown
9:16 AM 50.0 °F - 44.6 °F 82% 29.69 in 10.0 mi West 6.9 mph - N/A   Unknown
9:36 AM 51.8 °F - 44.6 °F 76% 29.70 in 10.0 mi West 4.6 mph - N/A   Unknown
9:56 AM 51.8 °F - 44.6 °F 76% 29.70 in 10.0 mi West 4.6 mph - N/A   Unknown
10:16 AM 51.8 °F - 44.6 °F 76% 29.71 in 10.0 mi WSW 4.6 mph - N/A   Unknown
10:36 AM 51.8 °F - 44.6 °F 76% 29.71 in 10.0 mi West 6.9 mph - N/A   Unknown
10:56 AM 53.6 °F - 42.8 °F 67% 29.71 in 10.0 mi Calm Calm - N/A   Unknown
11:16 AM 53.6 °F - 44.6 °F 72% 29.71 in 10.0 mi West 10.4 mph - N/A   Unknown
11:36 AM 53.6 °F - 42.8 °F 67% 29.73 in 10.0 mi West 11.5 mph - N/A   Unknown
11:56 AM 53.6 °F - 44.6 °F 72% 29.73 in 10.0 mi WNW 9.2 mph - N/A   Unknown
12:16 PM 51.8 °F - 44.6 °F 76% 29.74 in 10.0 mi West 11.5 mph - N/A   Unknown
12:36 PM 53.6 °F - 44.6 °F 72% 29.75 in 10.0 mi WSW 9.2 mph - N/A   Unknown
12:56 PM 51.8 °F - 46.4 °F 82% 29.75 in 10.0 mi West 8.1 mph - N/A   Unknown
1:16 PM 53.6 °F - 46.4 °F 77% 29.75 in 10.0 mi WSW 8.1 mph - N/A   Unknown
1:36 PM 53.6 °F - 44.6 °F 72% 29.76 in 10.0 mi West 6.9 mph - N/A   Unknown
1:56 PM 53.6 °F - 44.6 °F 72% 29.77 in 10.0 mi West 9.2 mph - N/A   Unknown
2:16 PM 53.6 °F - 44.6 °F 72% 29.77 in 10.0 mi WSW 11.5 mph - N/A   Unknown
2:36 PM 55.4 °F - 44.6 °F 67% 29.78 in 10.0 mi WSW 9.2 mph - N/A   Unknown
2:56 PM 55.4 °F - 44.6 °F 67% 29.78 in 10.0 mi WSW 5.8 mph - N/A   Unknown
3:16 PM 55.4 °F - 44.6 °F 67% 29.78 in 10.0 mi SW 6.9 mph - N/A   Unknown
3:36 PM 55.4 °F - 44.6 °F 67% 29.78 in 10.0 mi West 5.8 mph - N/A   Unknown
3:56 PM 55.4 °F - 44.6 °F 67% 29.79 in 10.0 mi SW 8.1 mph - N/A   Unknown
4:16 PM 53.6 °F - 42.8 °F 67% 29.79 in 10.0 mi SW 8.1 mph - N/A   Unknown
4:36 PM 53.6 °F - 44.6 °F 72% 29.79 in 10.0 mi SW 6.9 mph - N/A   Unknown
4:56 PM 57.2 °F - 46.4 °F 67% 29.79 in 10.0 mi West 12.7 mph 16.1 mph N/A   Unknown
5:16 PM 55.4 °F - 44.6 °F 67% 29.79 in 10.0 mi West 13.8 mph - N/A   Unknown
5:36 PM 55.4 °F - 44.6 °F 67% 29.80 in 10.0 mi WSW 13.8 mph - N/A   Unknown
5:56 PM 55.4 °F - 44.6 °F 67% 29.80 in 10.0 mi SW 11.5 mph 19.6 mph N/A   Unknown
6:16 PM 55.4 °F - 44.6 °F 67% 29.81 in 10.0 mi WSW 11.5 mph 19.6 mph N/A   Unknown
6:36 PM 53.6 °F - 44.6 °F 72% 29.81 in 10.0 mi WSW 11.5 mph 17.3 mph N/A   Unknown
6:56 PM 53.6 °F - 42.8 °F 67% 29.82 in 10.0 mi WSW 12.7 mph 18.4 mph N/A   Unknown
7:36 PM 53.6 °F - 42.8 °F 67% 29.83 in 10.0 mi WSW 9.2 mph 17.3 mph N/A   Unknown
7:56 PM 51.8 °F - 42.8 °F 71% 29.83 in 10.0 mi WSW 9.2 mph - N/A   Unknown
8:16 PM 51.8 °F - 42.8 °F 71% 29.84 in 10.0 mi WSW 6.9 mph - N/A   Unknown
8:36 PM 51.8 °F - 42.8 °F 71% 29.84 in 10.0 mi SW 6.9 mph - N/A   Unknown
8:56 PM 51.8 °F - 42.8 °F 71% 29.84 in 10.0 mi WSW 6.9 mph - N/A   Unknown
9:16 PM 51.8 °F - 42.8 °F 71% 29.85 in 10.0 mi WSW 5.8 mph - N/A   Unknown
9:36 PM 51.8 °F - 42.8 °F 71% 29.86 in 10.0 mi WSW 5.8 mph - N/A   Unknown
9:56 PM 51.8 °F - 42.8 °F 71% 29.86 in 10.0 mi SW 3.5 mph - N/A   Unknown
10:16 PM 51.8 °F - 42.8 °F 71% 29.87 in 10.0 mi SSW 4.6 mph - N/A   Unknown
10:36 PM 51.8 °F - 42.8 °F 71% 29.87 in 10.0 mi Calm Calm - N/A   Unknown
10:56 PM 51.8 °F - 42.8 °F 71% 29.87 in 10.0 mi SSW 3.5 mph - N/A   Unknown
11:16 PM 51.8 °F - 42.8 °F 71% 29.88 in 10.0 mi Calm Calm - N/A   Unknown
11:36 PM 50.0 °F - 42.8 °F 76% 29.88 in 10.0 mi Calm Calm - N/A   Unknown
11:56 PM 48.2 °F - 42.8 °F 82% 29.89 in 10.0 mi Calm Calm - N/A   Unknown